Time;durP1;ratioP1;P1;durP2;ratioP2;P2;SDS_P1;SDS_P2;PMS_P1;PMS_P2;Temp;Humidity;BMP_temperature;BMP_pressure;BME280_temperature;BME280_humidity;BME280_pressure;Samples;Min_cycle;Max_cycle;Signal;HPM_P1;HPM_P2
2022/12/11 00:00:29;;;;;;;51.90;10.40;;;-1.50;99.90;;;;;;4235522;28;20044;-85
2022/12/11 00:02:33;;;;;;;32.42;8.00;;;0.20;99.90;;;;;;4221629;28;20514;-85
2022/12/11 00:04:35;;;;;;;30.58;7.97;;;-1.50;99.90;;;;;;4237399;28;20126;-85
2022/12/11 00:06:39;;;;;;;30.48;9.57;;;-1.50;99.90;;;;;;4219797;28;20086;-85
2022/12/11 00:08:42;;;;;;;35.75;10.05;;;-1.40;99.90;;;;;;4221784;28;20063;-85
2022/12/11 00:10:49;;;;;;;37.58;9.95;;;-0.90;99.90;;;;;;4219642;28;20098;-85
2022/12/11 00:12:52;;;;;;;26.88;7.97;;;-1.60;99.90;;;;;;4238735;28;20056;-85
2022/12/11 00:14:53;;;;;;;29.58;9.13;;;-1.50;99.90;;;;;;4220266;28;20515;-85
2022/12/11 00:16:54;;;;;;;29.70;10.40;;;-1.50;99.90;;;;;;4237794;28;20495;-85
2022/12/11 00:18:56;;;;;;;37.78;10.77;;;-0.90;99.90;;;;;;4235317;28;20062;-85
2022/12/11 00:21:04;;;;;;;40.83;11.23;;;-0.40;99.90;;;;;;4205738;28;20044;-85
2022/12/11 00:23:06;;;;;;;36.92;10.75;;;-1.40;99.90;;;;;;4203314;28;20669;-85
2022/12/11 00:25:15;;;;;;;38.72;9.75;;;0.40;99.90;;;;;;4220915;28;20403;-85
2022/12/11 00:27:24;;;;;;;33.50;9.43;;;-1.30;99.90;;;;;;4220705;28;20047;-85
2022/12/11 00:29:25;;;;;;;;;;;-1.40;99.90;;;;;;4221812;28;20036;-86
2022/12/11 00:31:28;;;;;;;29.73;7.68;;;-1.40;99.90;;;;;;4203944;28;19984;-85
2022/12/11 00:33:30;;;;;;;37.60;9.77;;;-1.30;99.90;;;;;;4220806;28;20044;-85
2022/12/11 00:35:43;;;;;;;31.05;8.50;;;-1.30;99.90;;;;;;4203302;28;20075;-84
2022/12/11 00:37:45;;;;;;;35.95;10.38;;;-2.10;99.90;;;;;;4230106;28;20504;-84
2022/12/11 00:39:48;;;;;;;39.45;9.70;;;-1.40;99.90;;;;;;4238501;28;20161;-84
2022/12/11 00:41:50;;;;;;;42.50;10.35;;;-0.70;99.90;;;;;;4219951;28;20063;-84
2022/12/11 00:43:51;;;;;;;35.53;9.90;;;-1.20;99.90;;;;;;4236405;28;20040;-84
2022/12/11 00:45:54;;;;;;;30.83;9.55;;;0.00;99.90;;;;;;4220299;28;20113;-84
2022/12/11 00:47:56;;;;;;;28.48;8.98;;;-1.20;99.90;;;;;;4235513;28;20048;-84
2022/12/11 00:49:57;;;;;;;31.98;8.68;;;-1.30;99.90;;;;;;4218313;28;20090;-84
2022/12/11 00:51:59;;;;;;;34.92;9.50;;;-1.10;99.90;;;;;;4219159;28;20055;-84
2022/12/11 00:54:00;;;;;;;37.42;9.52;;;-0.50;99.90;;;;;;4236169;28;20039;-84
2022/12/11 00:56:17;;;;;;;37.38;9.93;;;-1.30;99.90;;;;;;4237270;28;20046;-84
2022/12/11 00:58:25;;;;;;;38.20;10.48;;;0.50;99.90;;;;;;4235982;28;20543;-84
2022/12/11 01:00:27;;;;;;;31.20;8.88;;;-1.10;99.90;;;;;;4236257;28;20115;-84
2022/12/11 01:02:29;;;;;;;27.52;8.75;;;-0.30;99.90;;;;;;4236944;28;20123;-84
2022/12/11 01:04:33;;;;;;;29.63;8.82;;;-1.00;99.90;;;;;;4218708;28;20056;-84
2022/12/11 01:06:34;;;;;;;32.72;9.18;;;-2.50;99.90;;;;;;4221074;28;20072;-84
2022/12/11 01:08:42;;;;;;;37.42;8.75;;;0.90;99.90;;;;;;4238795;28;20044;-84
2022/12/11 01:10:44;;;;;;;31.65;9.02;;;-1.00;99.90;;;;;;4221840;28;20040;-84
2022/12/11 01:12:44;;;;;;;35.50;8.60;;;-1.00;99.90;;;;;;4239847;28;20087;-84
2022/12/11 01:14:46;;;;;;;31.77;8.77;;;-1.00;99.90;;;;;;4216150;28;20051;-84
2022/12/11 01:16:48;;;;;;;30.40;8.57;;;-1.00;99.90;;;;;;4238792;28;20075;-84
2022/12/11 01:18:51;;;;;;;27.65;8.55;;;0.30;99.90;;;;;;4221868;28;20052;-85
2022/12/11 01:20:53;;;;;;;33.30;9.10;;;0.40;99.90;;;;;;4238901;28;20047;-85
2022/12/11 01:22:56;;;;;;;26.35;8.02;;;-0.30;99.90;;;;;;4222199;28;20044;-85
2022/12/11 01:24:58;;;;;;;32.70;9.43;;;0.20;99.90;;;;;;4238118;28;20061;-85
2022/12/11 01:27:00;;;;;;;22.83;7.80;;;0.50;99.90;;;;;;4220981;28;20040;-85
2022/12/11 01:29:02;;;;;;;33.70;8.30;;;-1.00;99.90;;;;;;4240111;28;20036;-84
2022/12/11 01:31:11;;;;;;;38.13;9.27;;;-0.90;99.90;;;;;;4220173;28;20056;-85
2022/12/11 01:33:14;;;;;;;26.77;8.38;;;-0.90;99.90;;;;;;4240263;28;20090;-85
2022/12/11 01:35:15;;;;;;;30.90;8.68;;;-0.90;99.90;;;;;;4240241;28;20047;-85
2022/12/11 01:37:16;;;;;;;35.13;8.32;;;-0.20;99.90;;;;;;4240410;28;20071;-85
2022/12/11 01:39:18;;;;;;;31.67;9.88;;;-1.00;99.90;;;;;;4243431;28;20095;-85
2022/12/11 01:41:20;;;;;;;29.70;9.75;;;0.40;99.90;;;;;;4248818;28;20044;-85
2022/12/11 01:43:22;;;;;;;25.80;8.07;;;0.60;99.90;;;;;;4248552;28;20047;-84
2022/12/11 01:45:30;;;;;;;26.17;7.82;;;-0.80;99.90;;;;;;4230686;28;20052;-84
2022/12/11 01:47:32;;;;;;;31.17;9.43;;;-0.40;99.90;;;;;;4239768;28;20047;-84
2022/12/11 01:49:35;;;;;;;25.45;7.68;;;-0.90;99.90;;;;;;4219524;28;20297;-85
2022/12/11 01:51:55;;;;;;;32.95;8.90;;;-0.70;99.90;;;;;;4219864;28;20479;-85
2022/12/11 01:54:02;;;;;;;37.97;9.18;;;-0.80;99.90;;;;;;4218132;28;20151;-85
2022/12/11 01:56:05;;;;;;;32.60;8.95;;;0.00;99.90;;;;;;4203019;28;20072;-84
2022/12/11 01:58:09;;;;;;;33.80;9.13;;;-0.80;99.90;;;;;;4220219;28;20043;-84
2022/12/11 02:00:11;;;;;;;30.88;10.63;;;-0.20;99.90;;;;;;4203305;28;20048;-84
2022/12/11 02:02:21;;;;;;;35.00;10.13;;;-0.70;99.90;;;;;;4220375;28;20523;-85
2022/12/11 02:04:24;;;;;;;31.88;10.07;;;0.90;99.90;;;;;;4220804;28;20381;-85
2022/12/11 02:06:51;;;;;;;31.83;9.27;;;-0.70;99.90;;;;;;4204137;28;20463;-84
2022/12/11 02:08:53;;;;;;;33.65;9.00;;;-0.70;99.90;;;;;;4201700;28;20053;-85
2022/12/11 02:11:18;;;;;;;35.47;9.43;;;-0.70;99.90;;;;;;4220245;28;20043;-85
2022/12/11 02:13:37;;;;;;;36.22;9.30;;;-0.60;99.90;;;;;;4220739;28;20101;-85
2022/12/11 02:15:59;;;;;;;33.78;10.40;;;-0.70;99.90;;;;;;4219439;28;20149;-84
2022/12/11 02:18:22;;;;;;;34.10;9.65;;;-1.00;99.90;;;;;;4220693;28;20438;-84
2022/12/11 02:20:36;;;;;;;29.35;9.32;;;-0.70;99.90;;;;;;4220673;28;20403;-84
2022/12/11 02:22:42;;;;;;;34.95;10.88;;;-0.60;99.90;;;;;;4221509;28;20044;-84
2022/12/11 02:25:05;;;;;;;36.95;9.48;;;-0.70;99.90;;;;;;4224407;28;20032;-84
2022/12/11 02:27:28;;;;;;;39.60;10.57;;;-0.70;99.90;;;;;;4219466;28;20159;-85
2022/12/11 02:29:46;;;;;;;30.83;9.52;;;-0.60;99.90;;;;;;4218565;28;20056;-84
2022/12/11 02:32:04;;;;;;;37.53;9.48;;;-0.60;99.90;;;;;;4220192;28;20062;-85
2022/12/11 02:34:16;;;;;;;39.13;11.60;;;0.10;99.90;;;;;;4202996;28;20045;-85
2022/12/11 02:36:21;;;;;;;40.42;10.70;;;-0.70;99.90;;;;;;4219542;28;20040;-84
2022/12/11 02:38:30;;;;;;;34.20;10.10;;;-0.50;99.90;;;;;;4220491;28;20036;-85
2022/12/11 02:40:38;;;;;;;41.75;10.02;;;-0.60;99.90;;;;;;4220284;28;20044;-85
2022/12/11 02:42:45;;;;;;;36.35;10.32;;;0.40;99.90;;;;;;4221105;28;20040;-85
2022/12/11 02:44:49;;;;;;;34.25;9.65;;;-0.60;99.90;;;;;;4220261;28;20056;-85
2022/12/11 02:46:51;;;;;;;43.25;10.80;;;0.60;99.90;;;;;;4220244;28;20050;-85
2022/12/11 02:48:54;;;;;;;36.15;10.63;;;-0.60;99.90;;;;;;4219200;28;20047;-85
2022/12/11 02:50:58;;;;;;;44.03;10.35;;;0.60;99.90;;;;;;4218333;28;20079;-85
2022/12/11 02:53:09;;;;;;;43.42;10.55;;;0.30;99.90;;;;;;4218284;28;20060;-85
2022/12/11 02:55:14;;;;;;;41.30;10.55;;;-0.60;99.90;;;;;;4219934;28;20048;-84
2022/12/11 02:57:42;;;;;;;42.38;9.95;;;1.20;99.90;;;;;;4220407;28;20044;-84
2022/12/11 02:59:45;;;;;;;;;;;-0.60;99.90;;;;;;4220973;28;20097;-84
2022/12/11 03:01:48;;;;;;;35.33;10.20;;;-0.50;99.90;;;;;;4204770;28;19947;-84
2022/12/11 03:03:49;;;;;;;40.35;9.60;;;0.40;99.90;;;;;;4205429;28;20053;-84
2022/12/11 03:05:50;;;;;;;47.38;11.20;;;0.50;99.90;;;;;;4206016;28;20072;-84
2022/12/11 03:07:52;;;;;;;38.00;10.80;;;-0.60;99.90;;;;;;4205039;28;20040;-84
2022/12/11 03:09:53;;;;;;;39.80;10.57;;;1.20;99.90;;;;;;4223867;28;20051;-84
2022/12/11 03:11:54;;;;;;;47.75;9.43;;;-0.40;99.90;;;;;;4204479;28;20613;-84
2022/12/11 03:13:58;;;;;;;37.67;9.25;;;-1.40;99.90;;;;;;4205993;28;20053;-84
2022/12/11 03:16:16;;;;;;;43.35;12.23;;;1.20;99.90;;;;;;4222012;28;20036;-84
2022/12/11 03:18:35;;;;;;;30.90;9.63;;;0.10;99.90;;;;;;4205123;28;20048;-84
2022/12/11 03:20:42;;;;;;;44.05;11.95;;;-0.40;99.90;;;;;;4230597;28;20046;-84
2022/12/11 03:22:56;;;;;;;30.83;9.35;;;-0.40;99.90;;;;;;4222510;28;20051;-84
2022/12/11 03:25:04;;;;;;;37.28;10.75;;;0.40;99.90;;;;;;4238350;28;20055;-84
2022/12/11 03:27:15;;;;;;;28.80;8.25;;;-0.40;99.90;;;;;;4238600;28;20058;-85
2022/12/11 03:29:31;;;;;;;35.33;9.10;;;0.30;99.90;;;;;;4220324;28;20062;-85
2022/12/11 03:31:51;;;;;;;34.60;9.00;;;1.10;99.90;;;;;;4237224;28;20112;-86
2022/12/11 03:33:59;;;;;;;35.53;8.77;;;-0.50;99.90;;;;;;4220072;28;20052;-85
2022/12/11 03:36:26;;;;;;;36.15;10.35;;;-0.50;99.90;;;;;;4232104;28;20040;-85
2022/12/11 03:38:41;;;;;;;40.92;10.55;;;-1.30;99.90;;;;;;4219996;28;20461;-85
2022/12/11 03:40:45;;;;;;;40.67;9.70;;;-1.00;99.90;;;;;;4237460;28;20058;-85
2022/12/11 03:42:51;;;;;;;36.42;8.77;;;0.10;99.90;;;;;;4236682;28;20499;-85
2022/12/11 03:44:56;;;;;;;43.22;10.13;;;0.70;99.90;;;;;;4236146;28;20044;-85
2022/12/11 03:47:00;;;;;;;30.00;8.77;;;0.70;99.90;;;;;;4234553;28;20043;-85
2022/12/11 03:49:09;;;;;;;40.22;10.10;;;1.00;99.90;;;;;;4218095;28;20058;-85
2022/12/11 03:51:09;;;;;;;37.58;9.07;;;-0.30;99.90;;;;;;4235066;28;20043;-85
2022/12/11 03:53:12;;;;;;;35.70;9.68;;;1.20;99.90;;;;;;4217756;28;20550;-85
2022/12/11 03:55:15;;;;;;;37.15;9.50;;;0.00;99.90;;;;;;4224589;28;20607;-85
2022/12/11 03:57:22;;;;;;;38.80;9.82;;;0.00;99.90;;;;;;4219081;28;20054;-84
2022/12/11 03:59:24;;;;;;;34.08;9.65;;;-0.30;99.90;;;;;;4218821;28;20043;-84
2022/12/11 04:01:26;;;;;;;42.63;9.45;;;-0.40;99.90;;;;;;4218819;28;20089;-84
2022/12/11 04:03:28;;;;;;;40.35;10.27;;;-0.50;99.90;;;;;;4200594;28;20044;-85
2022/12/11 04:05:31;;;;;;;42.17;10.75;;;-0.30;99.90;;;;;;4200773;28;20059;-85
2022/12/11 04:07:32;;;;;;;35.95;9.95;;;-0.30;99.90;;;;;;4218457;28;20060;-84
2022/12/11 04:09:34;;;;;;;44.03;10.73;;;-0.30;99.90;;;;;;4219167;28;20097;-84
2022/12/11 04:11:34;;;;;;;47.00;11.93;;;1.40;99.90;;;;;;4211725;28;20052;-85
2022/12/11 04:13:38;;;;;;;44.20;10.20;;;-0.40;99.90;;;;;;4234877;28;20047;-84
2022/12/11 04:15:39;;;;;;;40.90;10.43;;;-0.30;99.90;;;;;;4216885;28;20075;-85
2022/12/11 04:24:48;;;;;;;44.80;10.63;;;-0.20;99.90;;;;;;4235531;28;20408;-85
2022/12/11 04:26:48;;;;;;;41.00;9.13;;;-0.20;99.90;;;;;;4226207;28;20052;-84
2022/12/11 04:28:49;;;;;;;30.40;10.35;;;0.20;99.90;;;;;;4209883;28;20481;-85
2022/12/11 04:30:51;;;;;;;46.38;10.48;;;-0.30;99.90;;;;;;4216344;28;20050;-85
2022/12/11 04:32:54;;;;;;;32.03;9.93;;;0.30;99.90;;;;;;4233442;28;20376;-85
2022/12/11 04:34:56;;;;;;;41.95;9.95;;;0.50;99.90;;;;;;4235287;28;20035;-84
2022/12/11 04:36:57;;;;;;;36.28;8.85;;;-0.30;99.90;;;;;;4216407;28;20115;-85
2022/12/11 04:38:59;;;;;;;34.50;10.10;;;-1.40;99.90;;;;;;4234580;28;20071;-85
2022/12/11 04:41:09;;;;;;;41.90;10.45;;;-0.20;99.90;;;;;;4220030;28;20109;-85
2022/12/11 04:43:10;;;;;;;36.85;10.35;;;0.30;99.90;;;;;;4237526;28;20114;-85
2022/12/11 04:45:13;;;;;;;36.72;8.38;;;-0.50;99.90;;;;;;4238299;28;20040;-85
2022/12/11 04:47:14;;;;;;;34.50;10.00;;;-0.10;99.90;;;;;;4231795;28;20131;-85
2022/12/11 04:49:17;;;;;;;34.63;9.35;;;-0.70;99.90;;;;;;4220320;28;20058;-85
2022/12/11 04:51:21;;;;;;;43.33;9.90;;;1.50;99.90;;;;;;4236500;28;20047;-85
2022/12/11 04:53:24;;;;;;;34.42;9.60;;;1.50;99.90;;;;;;4236820;28;20424;-84
2022/12/11 04:55:24;;;;;;;28.70;10.02;;;1.40;99.90;;;;;;4219453;28;20196;-88
2022/12/11 04:57:26;;;;;;;41.47;9.82;;;-0.60;99.90;;;;;;4238305;28;20039;-85
2022/12/11 04:59:27;;;;;;;38.05;9.35;;;-0.10;99.90;;;;;;4237748;27;20061;-84
2022/12/11 05:01:34;;;;;;;32.30;9.93;;;-0.20;99.90;;;;;;4236915;28;20043;-84
2022/12/11 05:03:37;;;;;;;35.22;10.32;;;0.70;99.90;;;;;;4236772;28;20480;-84
2022/12/11 05:05:39;;;;;;;36.55;9.82;;;-0.10;99.90;;;;;;4224810;28;20174;-84
2022/12/11 05:07:40;;;;;;;37.88;10.07;;;0.90;99.90;;;;;;4204182;28;20055;-84
2022/12/11 05:09:42;;;;;;;33.22;9.85;;;-0.20;99.90;;;;;;4221630;28;20043;-84
2022/12/11 05:11:44;;;;;;;34.92;9.13;;;-0.10;99.90;;;;;;4221167;28;20043;-83
2022/12/11 05:13:45;;;;;;;38.17;10.32;;;-0.10;99.90;;;;;;4220843;28;20052;-83
2022/12/11 05:15:47;;;;;;;39.83;11.45;;;0.70;99.90;;;;;;4220370;28;20051;-85
2022/12/11 05:17:54;;;;;;;36.40;10.65;;;1.10;99.90;;;;;;4222552;28;20120;-84
2022/12/11 05:19:56;;;;;;;33.83;9.75;;;-0.20;99.90;;;;;;4221828;28;20070;-85
2022/12/11 05:21:58;;;;;;;37.58;9.43;;;1.70;99.90;;;;;;4227729;28;20153;-85
2022/12/11 05:24:02;;;;;;;34.88;10.05;;;-0.60;99.90;;;;;;4222783;28;20040;-86
2022/12/11 05:26:07;;;;;;;30.95;9.50;;;-0.10;99.90;;;;;;4220990;28;20036;-85
2022/12/11 05:28:08;;;;;;;33.05;9.82;;;-0.10;99.90;;;;;;4222279;28;20040;-84
2022/12/11 05:30:10;;;;;;;45.47;11.15;;;0.00;99.90;;;;;;4204169;28;20060;-84
2022/12/11 05:32:12;;;;;;;35.65;9.00;;;0.00;99.90;;;;;;4219979;28;20523;-84
2022/12/11 05:34:14;;;;;;;28.45;9.90;;;-1.10;99.90;;;;;;4220718;28;20119;-85
2022/12/11 05:36:29;;;;;;;30.65;8.88;;;-0.10;99.90;;;;;;4220940;28;20078;-84
2022/12/11 05:38:31;;;;;;;29.27;9.80;;;0.80;99.90;;;;;;4219883;28;20044;-84
2022/12/11 05:40:33;;;;;;;35.53;10.63;;;1.40;99.90;;;;;;4202440;28;20048;-84
2022/12/11 05:42:35;;;;;;;31.90;9.50;;;0.60;99.90;;;;;;4219846;28;20044;-84
2022/12/11 05:44:36;;;;;;;33.33;9.90;;;0.10;99.90;;;;;;4219475;28;20056;-84
2022/12/11 05:46:41;;;;;;;35.10;8.43;;;-0.10;99.90;;;;;;4220492;28;20048;-83
2022/12/11 05:48:44;;;;;;;29.98;8.65;;;0.80;99.90;;;;;;4220867;28;20071;-84
2022/12/11 05:51:07;;;;;;;30.45;8.82;;;0.00;99.90;;;;;;4218837;28;20438;-84
2022/12/11 05:53:09;;;;;;;30.38;10.02;;;0.00;99.90;;;;;;4219649;28;20048;-84
2022/12/11 05:55:10;;;;;;;32.30;9.18;;;-0.10;99.90;;;;;;4220299;28;20044;-84
2022/12/11 05:57:12;;;;;;;26.63;9.10;;;0.00;99.90;;;;;;4219298;28;20055;-84
2022/12/11 05:59:15;;;;;;;38.22;10.13;;;1.20;99.90;;;;;;4236880;28;20043;-84
2022/12/11 06:01:28;;;;;;;39.15;9.57;;;0.10;99.90;;;;;;4232589;28;20039;-84
2022/12/11 06:03:29;;;;;;;34.25;10.38;;;0.00;99.90;;;;;;4236218;28;20043;-84
2022/12/11 06:05:30;;;;;;;35.30;10.55;;;0.20;99.90;;;;;;4237848;27;20110;-84
2022/12/11 06:07:32;;;;;;;33.70;10.95;;;1.60;99.90;;;;;;4237543;28;20054;-84
2022/12/11 06:09:35;;;;;;;34.75;9.10;;;0.50;99.90;;;;;;4236604;28;20487;-84
2022/12/11 06:11:35;;;;;;;33.92;10.05;;;0.00;99.90;;;;;;4218804;28;20052;-84
2022/12/11 06:13:36;;;;;;;38.17;9.55;;;1.30;99.90;;;;;;4219920;28;20044;-84
2022/12/11 06:15:37;;;;;;;30.20;9.65;;;0.50;99.90;;;;;;4219190;28;20046;-85
2022/12/11 06:17:39;;;;;;;36.05;10.25;;;0.70;99.90;;;;;;4232750;28;20028;-84
2022/12/11 06:19:39;;;;;;;35.80;10.13;;;1.40;99.90;;;;;;4218881;28;20462;-85
2022/12/11 06:21:43;;;;;;;32.47;10.50;;;0.00;99.90;;;;;;4219099;28;20072;-84
2022/12/11 06:23:46;;;;;;;34.30;9.75;;;-0.60;99.90;;;;;;4236088;28;20051;-84
2022/12/11 06:25:48;;;;;;;30.67;10.40;;;0.90;99.90;;;;;;4237306;28;20500;-85
2022/12/11 06:27:50;;;;;;;28.70;8.55;;;-1.00;99.90;;;;;;4237791;28;20047;-85
2022/12/11 06:29:55;;;;;;;33.78;9.48;;;1.70;99.90;;;;;;4234924;28;20569;-84
2022/12/11 06:31:57;;;;;;;34.90;9.48;;;0.10;99.90;;;;;;4236428;28;20048;-85
2022/12/11 06:33:57;;;;;;;33.50;9.88;;;1.70;99.90;;;;;;4219256;28;20047;-86
2022/12/11 06:36:04;;;;;;;36.90;11.27;;;1.80;99.90;;;;;;4236473;28;20051;-85
2022/12/11 06:38:05;;;;;;;32.30;10.00;;;0.00;99.90;;;;;;4234098;28;20083;-85
2022/12/11 06:40:08;;;;;;;35.30;10.52;;;0.00;99.90;;;;;;4235747;28;20044;-85
2022/12/11 06:42:10;;;;;;;29.58;9.55;;;0.10;99.90;;;;;;4237438;28;20420;-85
2022/12/11 06:44:12;;;;;;;33.28;8.77;;;0.00;99.90;;;;;;4237614;28;20127;-85
2022/12/11 06:46:16;;;;;;;27.90;8.82;;;-0.60;99.90;;;;;;4218964;28;20056;-85
2022/12/11 06:48:19;;;;;;;28.77;9.43;;;0.40;99.90;;;;;;4236888;28;20449;-85
2022/12/11 06:50:22;;;;;;;29.45;9.02;;;1.50;99.90;;;;;;4236682;28;20090;-85
2022/12/11 06:52:28;;;;;;;34.35;9.88;;;0.10;99.90;;;;;;4236923;28;20464;-85
2022/12/11 06:54:29;;;;;;;31.42;10.27;;;1.40;99.90;;;;;;4231310;28;20039;-85
2022/12/11 06:56:33;;;;;;;27.80;8.27;;;0.00;99.90;;;;;;4235130;28;20040;-85
2022/12/11 06:58:36;;;;;;;37.70;9.20;;;1.00;99.90;;;;;;4236818;28;20040;-86
2022/12/11 07:00:38;;;;;;;28.20;8.85;;;0.10;99.90;;;;;;4235203;28;20507;-86
2022/12/11 07:02:39;;;;;;;32.53;10.93;;;0.00;99.90;;;;;;4236496;28;20058;-86
2022/12/11 07:04:45;;;;;;;32.00;8.57;;;0.10;99.90;;;;;;4236929;28;20069;-85
2022/12/11 07:06:48;;;;;;;31.20;9.07;;;0.10;99.90;;;;;;4221238;28;20044;-85
2022/12/11 07:08:49;;;;;;;33.72;11.13;;;-0.90;99.90;;;;;;4236657;28;20128;-85
2022/12/11 07:10:50;;;;;;;28.88;9.07;;;0.40;99.90;;;;;;4235160;28;20426;-85
2022/12/11 07:12:53;;;;;;;36.22;11.18;;;1.70;99.90;;;;;;4203614;28;20045;-85
2022/12/11 07:14:54;;;;;;;42.58;10.88;;;0.70;99.90;;;;;;4218990;28;20056;-85
2022/12/11 07:16:56;;;;;;;31.38;9.70;;;0.40;99.90;;;;;;4201657;28;20084;-86
2022/12/11 07:18:59;;;;;;;32.17;9.05;;;0.00;99.90;;;;;;4219679;28;20071;-86
2022/12/11 07:21:01;;;;;;;27.40;8.35;;;0.00;99.90;;;;;;4201195;28;20052;-86
2022/12/11 07:23:03;;;;;;;38.08;9.85;;;0.40;99.90;;;;;;4201362;28;20094;-85
2022/12/11 07:25:10;;;;;;;38.13;9.73;;;0.00;99.90;;;;;;4218539;28;20055;-85
2022/12/11 07:27:12;;;;;;;33.50;9.63;;;0.90;99.90;;;;;;4219797;28;20047;-86
2022/12/11 07:29:14;;;;;;;29.75;8.32;;;1.60;99.90;;;;;;4201394;28;20052;-85
2022/12/11 07:31:20;;;;;;;31.75;9.65;;;0.10;99.90;;;;;;4203644;28;20048;-85
2022/12/11 07:33:21;;;;;;;33.00;10.15;;;0.00;99.90;;;;;;4236100;28;20047;-85
2022/12/11 07:35:25;;;;;;;32.08;9.85;;;0.90;99.90;;;;;;4234729;28;20185;-85
2022/12/11 07:37:26;;;;;;;28.85;8.27;;;0.00;99.90;;;;;;4234929;28;20043;-85
2022/12/11 07:39:28;;;;;;;32.40;8.73;;;-0.40;99.90;;;;;;4236544;28;20045;-85
2022/12/11 07:41:30;;;;;;;28.67;8.68;;;0.10;99.90;;;;;;4218296;28;20404;-85
2022/12/11 07:43:34;;;;;;;35.25;9.10;;;0.10;99.90;;;;;;4218272;28;20040;-85
2022/12/11 07:45:36;;;;;;;33.53;10.90;;;0.00;99.90;;;;;;4237326;28;20040;-85
2022/12/11 07:47:39;;;;;;;34.45;10.52;;;0.50;99.90;;;;;;4231051;28;20115;-84
2022/12/11 07:49:46;;;;;;;37.80;9.50;;;1.50;99.90;;;;;;4220500;28;20474;-85
2022/12/11 07:51:48;;;;;;;28.52;9.55;;;0.10;99.90;;;;;;4227692;28;20519;-84
2022/12/11 07:53:53;;;;;;;34.00;8.13;;;1.20;99.90;;;;;;4230407;28;20044;-85
2022/12/11 07:55:58;;;;;;;38.17;9.13;;;1.20;99.90;;;;;;4228215;28;20070;-86
2022/12/11 07:58:00;;;;;;;26.42;8.13;;;1.30;99.90;;;;;;4210082;28;20068;-85
2022/12/11 08:00:01;;;;;;;29.77;9.95;;;1.30;99.90;;;;;;4217808;28;20048;-85
2022/12/11 08:02:02;;;;;;;29.10;9.20;;;1.20;99.90;;;;;;4232031;28;20114;-84
2022/12/11 08:04:06;;;;;;;28.70;9.98;;;0.10;99.90;;;;;;4235816;28;20369;-85
2022/12/11 08:06:07;;;;;;;27.50;8.40;;;0.90;99.90;;;;;;4234231;28;20109;-84
2022/12/11 08:08:09;;;;;;;35.08;8.23;;;0.10;99.90;;;;;;4235526;28;20043;-85
2022/12/11 08:10:11;;;;;;;32.72;8.15;;;0.90;99.90;;;;;;4234036;28;20060;-85
2022/12/11 08:12:12;;;;;;;35.33;10.35;;;0.20;99.90;;;;;;4217306;28;20416;-85
2022/12/11 08:14:14;;;;;;;31.75;9.93;;;0.70;99.90;;;;;;4234402;28;20055;-85
2022/12/11 08:16:16;;;;;;;33.00;9.60;;;1.30;99.90;;;;;;4233630;28;20039;-85
2022/12/11 08:18:17;;;;;;;38.28;10.05;;;1.50;99.90;;;;;;4229604;28;20055;-85
2022/12/11 08:20:20;;;;;;;31.95;9.60;;;0.50;99.90;;;;;;4210603;28;20167;-85
2022/12/11 08:22:22;;;;;;;30.63;9.73;;;1.30;99.90;;;;;;4199688;28;20477;-85
2022/12/11 08:24:23;;;;;;;33.35;10.10;;;1.60;99.90;;;;;;4224687;28;20044;-86
2022/12/11 08:26:30;;;;;;;37.08;11.95;;;1.90;99.90;;;;;;4233006;28;20043;-85
2022/12/11 08:28:39;;;;;;;36.65;8.77;;;0.10;99.90;;;;;;4236070;28;20035;-86
2022/12/11 08:30:47;;;;;;;43.15;11.32;;;1.00;99.90;;;;;;4214758;28;20470;-87
2022/12/11 08:32:50;;;;;;;30.33;9.23;;;0.20;99.90;;;;;;4233433;28;20061;-87
2022/12/11 08:34:52;;;;;;;40.95;10.35;;;1.10;99.90;;;;;;4219307;28;20508;-87
2022/12/11 08:36:54;;;;;;;31.35;9.63;;;1.40;99.90;;;;;;4200886;28;20074;-87
2022/12/11 08:38:56;;;;;;;34.92;9.07;;;1.70;99.90;;;;;;4218904;28;20044;-86
2022/12/11 08:41:10;;;;;;;41.67;10.85;;;0.30;99.90;;;;;;4218324;28;20051;-86
2022/12/11 08:43:12;;;;;;;31.50;9.50;;;0.30;99.90;;;;;;4218859;28;20115;-86
2022/12/11 08:45:16;;;;;;;35.00;8.80;;;1.50;99.90;;;;;;4202052;28;20483;-87
2022/12/11 08:47:19;;;;;;;33.30;9.63;;;0.30;99.90;;;;;;4218572;28;20044;-86
2022/12/11 08:49:20;;;;;;;33.78;9.27;;;1.60;99.90;;;;;;4202612;28;20105;-87
2022/12/11 08:51:25;;;;;;;35.58;8.55;;;0.20;99.90;;;;;;4232389;28;20055;-87
2022/12/11 08:53:29;;;;;;;30.15;8.60;;;-1.00;99.90;;;;;;4235528;28;20043;-87
2022/12/11 08:55:34;;;;;;;26.92;9.50;;;-1.10;99.90;;;;;;4236500;28;20031;-88
2022/12/11 08:57:35;;;;;;;31.23;9.00;;;0.20;99.90;;;;;;4236335;28;20039;-87
2022/12/11 08:59:47;;;;;;;37.10;9.55;;;0.60;99.90;;;;;;4235283;28;20047;-84
2022/12/11 09:01:48;;;;;;;36.30;10.80;;;1.50;99.90;;;;;;4235348;28;20043;-86
2022/12/11 09:03:50;;;;;;;40.67;10.23;;;0.20;99.90;;;;;;4235274;28;20055;-86
2022/12/11 09:05:52;;;;;;;36.58;9.57;;;0.70;99.90;;;;;;4235872;28;20043;-87
2022/12/11 09:07:54;;;;;;;33.47;11.35;;;0.10;99.90;;;;;;4227220;28;20047;-86
2022/12/11 09:09:56;;;;;;;33.30;9.35;;;1.40;99.90;;;;;;4219432;28;20047;-87
2022/12/11 09:11:58;;;;;;;39.90;10.82;;;-0.50;99.90;;;;;;4218611;28;20094;-86
2022/12/11 09:14:01;;;;;;;37.10;9.45;;;1.90;99.90;;;;;;4218251;28;20047;-87
2022/12/11 09:16:08;;;;;;;34.33;10.18;;;1.40;99.90;;;;;;4218522;28;20047;-87
2022/12/11 09:18:08;;;;;;;36.95;9.30;;;0.10;99.90;;;;;;4218880;28;20523;-87
2022/12/11 09:20:15;;;;;;;35.63;9.10;;;-1.10;99.90;;;;;;4201546;28;20131;-86
2022/12/11 09:22:17;;;;;;;32.00;9.80;;;0.20;99.90;;;;;;4201963;28;20057;-86
2022/12/11 09:24:18;;;;;;;33.70;9.88;;;0.10;99.90;;;;;;4201971;28;20059;-87
2022/12/11 09:26:19;;;;;;;38.80;9.65;;;0.30;99.90;;;;;;4222749;28;20122;-87
2022/12/11 09:28:22;;;;;;;31.60;9.48;;;0.10;99.90;;;;;;4220891;28;20144;-87
2022/12/11 09:30:24;;;;;;;41.28;11.35;;;0.10;99.90;;;;;;4239246;28;20039;-86
2022/12/11 09:32:24;;;;;;;34.45;9.82;;;0.20;99.90;;;;;;4240007;28;20044;-87
2022/12/11 09:34:27;;;;;;;40.20;10.13;;;0.90;99.90;;;;;;4238070;28;20046;-87
2022/12/11 09:36:29;;;;;;;33.75;10.35;;;0.30;99.90;;;;;;4238401;28;20487;-86
2022/12/11 09:38:31;;;;;;;43.58;10.55;;;0.10;99.90;;;;;;4239129;28;20096;-86
2022/12/11 09:40:32;;;;;;;37.92;11.32;;;0.10;99.90;;;;;;4238651;28;20050;-87
2022/12/11 09:43:10;;;;;;;41.75;10.32;;;0.20;99.90;;;;;;4228032;28;20054;-87
2022/12/11 09:45:17;;;;;;;33.83;9.95;;;-1.20;99.90;;;;;;4206009;28;20066;-87
2022/12/11 09:47:39;;;;;;;39.67;10.52;;;0.30;99.90;;;;;;4234216;28;20542;-87
2022/12/11 09:49:44;;;;;;;39.67;9.57;;;0.30;99.90;;;;;;4221864;28;20074;-90
2022/12/11 09:51:53;;;;;;;38.78;9.95;;;0.70;99.90;;;;;;4206700;28;20048;-87
2022/12/11 09:53:58;;;;;;;38.78;9.65;;;1.60;99.90;;;;;;4229156;28;20047;-87
2022/12/11 09:56:15;;;;;;;36.30;10.93;;;0.20;99.90;;;;;;4231867;28;20043;-87
2022/12/11 09:58:32;;;;;;;38.60;11.50;;;1.00;99.90;;;;;;4236980;28;20083;-87
2022/12/11 10:00:44;;;;;;;39.60;10.75;;;0.30;99.90;;;;;;4237834;28;20070;-87
2022/12/11 10:03:10;;;;;;;34.45;10.82;;;0.30;99.90;;;;;;4206581;28;20044;-87
2022/12/11 10:05:14;;;;;;;40.95;9.90;;;1.70;99.90;;;;;;4205068;28;20048;-87
2022/12/11 10:07:32;;;;;;;36.30;10.38;;;1.60;99.90;;;;;;4221704;28;20100;-87
2022/12/11 10:10:09;;;;;;;38.78;10.88;;;0.40;99.90;;;;;;4215057;28;20050;-87
2022/12/11 10:12:36;;;;;;;36.58;11.50;;;0.30;99.90;;;;;;4218072;28;20074;-88
2022/12/11 10:15:24;;;;;;;40.67;9.65;;;0.20;99.90;;;;;;4223779;28;20081;-89
2022/12/11 10:17:29;;;;;;;37.95;9.98;;;0.30;99.90;;;;;;4177684;28;20036;-87
2022/12/11 10:19:32;;;;;;;38.15;10.55;;;0.20;99.90;;;;;;4236187;27;20052;-86
2022/12/11 10:21:41;;;;;;;45.55;11.43;;;0.40;99.90;;;;;;4207244;28;20104;-86
2022/12/11 10:24:03;;;;;;;43.33;10.90;;;1.80;99.90;;;;;;4239906;28;20459;-86
2022/12/11 10:26:14;;;;;;;41.28;11.60;;;0.40;99.90;;;;;;4216590;28;20424;-84
2022/12/11 10:28:19;;;;;;;38.88;11.35;;;1.70;99.90;;;;;;4227107;28;20052;-85
2022/12/11 10:30:36;;;;;;;46.33;10.88;;;0.30;99.90;;;;;;4234786;28;20080;-84
2022/12/11 10:32:45;;;;;;;39.30;10.07;;;0.60;99.90;;;;;;4238694;28;20054;-85
2022/12/11 10:34:49;;;;;;;46.47;11.85;;;0.50;99.90;;;;;;4220470;28;20044;-84
2022/12/11 10:36:54;;;;;;;34.03;10.07;;;1.40;99.90;;;;;;4219560;28;20047;-83
2022/12/11 10:38:56;;;;;;;35.25;10.05;;;0.40;99.90;;;;;;4221434;28;20048;-83
2022/12/11 10:41:03;;;;;;;37.80;9.88;;;2.30;99.90;;;;;;4218780;28;20040;-84
2022/12/11 10:43:05;;;;;;;30.80;9.77;;;0.40;99.90;;;;;;4219906;28;20400;-83
2022/12/11 10:45:15;;;;;;;35.00;10.02;;;1.20;99.90;;;;;;4219514;28;20158;-84
2022/12/11 10:47:18;;;;;;;45.53;12.00;;;0.50;99.90;;;;;;4201818;28;20194;-84
2022/12/11 10:49:24;;;;;;;37.70;12.77;;;0.90;99.90;;;;;;4220127;28;20136;-85
2022/12/11 10:51:30;;;;;;;39.58;10.00;;;-0.70;99.90;;;;;;4225908;28;20042;-85
2022/12/11 10:53:33;;;;;;;38.33;10.73;;;0.60;99.90;;;;;;4230268;28;20056;-85